createdAt,value
2019-06-20T00:00:09.018Z,89.0
2019-06-20T00:01:12.822Z,89.0
2019-06-20T00:02:13.094Z,89.0
2019-06-20T00:03:33.319Z,88.0
2019-06-20T00:04:13.256Z,88.0
2019-06-20T00:05:13.479Z,88.0
2019-06-20T00:06:13.528Z,88.0
2019-06-20T00:07:13.836Z,88.0
2019-06-20T00:08:34.166Z,88.0
2019-06-20T00:09:14.320Z,88.0
2019-06-20T00:10:14.510Z,88.0
2019-06-20T00:11:14.556Z,88.0
2019-06-20T00:12:14.764Z,88.0
2019-06-20T00:13:34.916Z,88.0
2019-06-20T00:14:14.936Z,88.0
2019-06-20T00:15:14.997Z,88.0
2019-06-20T00:16:15.012Z,88.0
2019-06-20T00:17:15.124Z,88.0
2019-06-20T00:18:35.379Z,88.0
2019-06-20T00:19:15.394Z,88.0
2019-06-20T00:20:15.426Z,88.0
2019-06-20T00:21:15.444Z,88.0
2019-06-20T00:22:15.611Z,88.0
2019-06-20T00:23:35.763Z,88.0
2019-06-20T00:24:15.773Z,89.0
2019-06-20T00:25:15.847Z,89.0
2019-06-20T00:26:16.111Z,89.0
2019-06-20T00:27:16.008Z,89.0
2019-06-20T00:28:36.054Z,89.0
2019-06-20T00:29:16.306Z,89.0
2019-06-20T00:30:16.199Z,89.0
2019-06-20T00:31:17.320Z,90.0
2019-06-20T00:32:17.392Z,90.0
2019-06-20T00:33:37.540Z,90.0
2019-06-20T00:37:48.120Z,91.0
2019-06-20T00:38:48.035Z,91.0
2019-06-20T00:42:48.596Z,91.0
2019-06-20T00:43:48.752Z,91.0
2019-06-20T00:47:49.213Z,92.0
2019-06-20T00:48:39.369Z,91.0
2019-06-20T00:52:49.626Z,91.0
2019-06-20T00:53:49.811Z,91.0
2019-06-20T00:56:20.299Z,91.0
2019-06-20T00:57:40.413Z,91.0
2019-06-20T00:58:40.477Z,91.0
2019-06-20T01:00:39.615Z,91.0
2019-06-20T01:01:39.696Z,91.0
2019-06-20T01:02:49.854Z,91.0
2019-06-20T01:03:40.091Z,91.0
2019-06-20T01:04:20.096Z,91.0
2019-06-20T01:05:30.400Z,91.0
2019-06-20T01:06:30.596Z,92.0
2019-06-20T01:07:52.674Z,92.0
2019-06-20T01:08:42.668Z,92.0
2019-06-20T01:09:32.881Z,92.0
2019-06-20T01:10:33.165Z,92.0
2019-06-20T01:11:33.261Z,92.0
2019-06-20T01:12:53.578Z,92.0
2019-06-20T01:13:53.663Z,91.0
2019-06-20T01:14:33.783Z,91.0
2019-06-20T01:15:33.803Z,91.0
2019-06-20T01:16:34.107Z,91.0
2019-06-20T01:17:54.468Z,91.0
2019-06-20T01:18:44.548Z,91.0
2019-06-20T01:19:34.591Z,91.0
2019-06-20T01:20:34.751Z,91.0
2019-06-20T01:21:34.792Z,91.0
2019-06-20T01:22:55.080Z,91.0
2019-06-20T01:23:44.937Z,91.0
2019-06-20T01:24:35.088Z,91.0
2019-06-20T01:25:35.222Z,91.0
2019-06-20T01:26:25.560Z,91.0
2019-06-20T01:29:15.734Z,91.0
2019-06-20T01:30:15.923Z,91.0
2019-06-20T01:31:18.386Z,91.0
2019-06-20T01:34:28.725Z,91.0
2019-06-20T01:35:18.758Z,90.0
2019-06-20T01:36:18.952Z,91.0
2019-06-20T01:39:19.508Z,91.0
2019-06-20T01:40:19.719Z,91.0
2019-06-20T01:41:19.914Z,91.0
2019-06-20T01:44:30.271Z,91.0
2019-06-20T01:45:20.291Z,91.0
2019-06-20T01:46:20.425Z,91.0
2019-06-20T01:49:30.628Z,91.0
2019-06-20T01:50:20.780Z,91.0
2019-06-20T01:51:20.987Z,91.0
2019-06-20T01:54:21.488Z,91.0
2019-06-20T01:55:21.630Z,91.0
2019-06-20T01:56:21.969Z,91.0
2019-06-20T01:58:42.299Z,91.0
2019-06-20T01:59:32.462Z,91.0
2019-06-20T02:00:33.351Z,91.0
2019-06-20T02:01:33.509Z,91.0
2019-06-20T02:02:53.370Z,91.0
2019-06-20T02:03:43.421Z,91.0
2019-06-20T02:04:23.614Z,91.0
2019-06-20T02:05:23.515Z,91.0
2019-06-20T02:06:23.676Z,91.0
2019-06-20T02:07:43.956Z,91.0
2019-06-20T02:08:43.972Z,91.0
2019-06-20T02:09:34.138Z,91.0
2019-06-20T02:10:34.299Z,91.0
2019-06-20T02:11:34.401Z,91.0
2019-06-20T02:12:54.597Z,91.0
2019-06-20T02:13:44.717Z,91.0
2019-06-20T02:14:24.743Z,91.0
2019-06-20T02:15:24.786Z,92.0
2019-06-20T02:16:24.859Z,92.0
2019-06-20T02:17:44.923Z,92.0
2019-06-20T02:18:45.023Z,92.0
2019-06-20T02:19:35.033Z,92.0
2019-06-20T02:20:35.312Z,92.0
2019-06-20T02:21:35.417Z,92.0
2019-06-20T02:22:55.800Z,92.0
2019-06-20T02:23:45.914Z,92.0
2019-06-20T02:24:26.200Z,92.0
2019-06-20T02:25:25.960Z,92.0
2019-06-20T02:26:25.974Z,92.0
2019-06-20T02:27:46.260Z,92.0
2019-06-20T02:28:46.432Z,92.0
2019-06-20T02:29:46.655Z,92.0
2019-06-20T02:30:46.917Z,92.0
2019-06-20T02:32:57.259Z,92.0
2019-06-20T02:33:47.459Z,92.0
2019-06-20T02:34:27.671Z,92.0
2019-06-20T02:35:27.712Z,92.0
2019-06-20T02:36:27.879Z,92.0
2019-06-20T02:37:47.786Z,92.0
2019-06-20T02:38:47.846Z,92.0
2019-06-20T02:42:58.444Z,93.0
2019-06-20T02:43:48.477Z,93.0
2019-06-20T02:44:30.243Z,93.0
2019-06-20T02:45:28.828Z,93.0
2019-06-20T02:46:28.679Z,93.0
2019-06-20T02:47:49.087Z,93.0
2019-06-20T02:48:49.231Z,93.0
2019-06-20T02:52:59.609Z,93.0
2019-06-20T02:53:49.676Z,93.0
2019-06-20T02:54:29.774Z,93.0
2019-06-20T02:55:30.077Z,93.0
2019-06-20T02:56:20.083Z,93.0
2019-06-20T02:59:20.656Z,93.0
2019-06-20T03:00:26.248Z,94.0
2019-06-20T03:01:20.820Z,94.0
2019-06-20T03:02:50.881Z,94.0
2019-06-20T03:03:50.964Z,94.0
2019-06-20T03:04:31.015Z,94.0
2019-06-20T03:05:31.189Z,94.0
2019-06-20T03:07:01.255Z,94.0
2019-06-20T03:08:01.394Z,94.0
2019-06-20T03:09:01.462Z,93.0
2019-06-20T03:09:51.722Z,94.0
2019-06-20T03:15:12.306Z,94.0
2019-06-20T03:16:42.404Z,94.0
2019-06-20T03:17:22.532Z,94.0
2019-06-20T03:18:12.590Z,94.0
2019-06-20T03:19:12.569Z,94.0
2019-06-20T03:20:12.721Z,94.0
2019-06-20T03:21:42.979Z,94.0
2019-06-20T03:22:23.061Z,94.0
2019-06-20T03:23:13.099Z,94.0
2019-06-20T03:24:13.312Z,94.0
2019-06-20T03:25:13.549Z,94.0
2019-06-20T03:26:43.771Z,94.0
2019-06-20T03:27:23.836Z,94.0
2019-06-20T03:28:13.870Z,94.0
2019-06-20T03:29:14.167Z,94.0
2019-06-20T03:30:14.321Z,94.0
2019-06-20T03:31:44.476Z,94.0
2019-06-20T03:32:34.707Z,94.0
2019-06-20T03:33:34.940Z,94.0
2019-06-20T03:34:25.067Z,94.0
2019-06-20T03:35:25.241Z,94.0
2019-06-20T03:36:55.473Z,94.0
2019-06-20T03:37:35.543Z,94.0
2019-06-20T03:38:35.616Z,94.0
2019-06-20T03:39:35.790Z,94.0
2019-06-20T03:40:35.826Z,94.0
2019-06-20T03:42:06.132Z,94.0
2019-06-20T03:42:45.998Z,94.0
2019-06-20T03:43:46.101Z,94.0
2019-06-20T03:45:01.142Z,94.0
2019-06-20T03:45:46.339Z,94.0
2019-06-20T03:47:06.512Z,94.0
2019-06-20T03:47:36.718Z,94.0
2019-06-20T03:48:36.906Z,94.0
2019-06-20T03:49:37.078Z,94.0
2019-06-20T03:50:37.401Z,94.0
2019-06-20T03:51:57.269Z,94.0
2019-06-20T03:52:47.461Z,94.0
2019-06-20T03:53:47.717Z,94.0
2019-06-20T03:54:47.913Z,94.0
2019-06-20T03:55:48.024Z,94.0
2019-06-20T03:57:08.198Z,94.0
2019-06-20T03:58:08.453Z,94.0
2019-06-20T03:59:08.551Z,94.0
2019-06-20T04:00:08.772Z,94.0
2019-06-20T04:01:33.467Z,94.0
2019-06-20T04:02:23.667Z,94.0
2019-06-20T04:03:13.722Z,94.0
2019-06-20T04:04:13.938Z,94.0
2019-06-20T04:05:14.029Z,94.0
2019-06-20T04:06:34.047Z,94.0
2019-06-20T04:07:24.173Z,94.0
2019-06-20T04:08:14.173Z,94.0
2019-06-20T04:09:14.345Z,94.0
2019-06-20T04:10:14.299Z,94.0
2019-06-20T04:11:34.233Z,94.0
2019-06-20T04:12:14.329Z,94.0
2019-06-20T04:13:14.429Z,94.0
2019-06-20T04:15:18.845Z,94.0
2019-06-20T04:16:35.185Z,94.0
2019-06-20T04:17:25.287Z,94.0
2019-06-20T04:18:15.268Z,94.0
2019-06-20T04:21:35.749Z,94.0
2019-06-20T04:22:15.882Z,94.0
2019-06-20T04:26:36.487Z,93.0
2019-06-20T04:31:36.771Z,91.0
2019-06-20T04:37:27.333Z,91.0
2019-06-20T04:42:28.151Z,91.0
2019-06-20T04:43:28.241Z,91.0
2019-06-20T04:44:28.553Z,91.0
2019-06-20T04:45:34.823Z,91.0
2019-06-20T04:46:58.479Z,91.0
2019-06-20T04:47:38.602Z,91.0
2019-06-20T04:48:30.197Z,91.0
2019-06-20T04:49:29.065Z,91.0
2019-06-20T04:50:29.226Z,91.0
2019-06-20T04:51:59.291Z,90.0
2019-06-20T04:52:39.266Z,90.0
2019-06-20T04:53:39.552Z,90.0
2019-06-20T04:54:29.617Z,90.0
2019-06-20T04:55:29.687Z,89.0
2019-06-20T04:57:00.032Z,89.0
2019-06-20T04:57:40.255Z,90.0
2019-06-20T04:58:40.391Z,89.0
2019-06-20T04:59:40.525Z,90.0
2019-06-20T05:00:44.856Z,89.0
2019-06-20T05:02:15.125Z,89.0
2019-06-20T05:03:15.035Z,89.0
2019-06-20T05:04:15.425Z,89.0
2019-06-20T05:05:15.484Z,88.0
2019-06-20T05:07:36.051Z,88.0
2019-06-20T05:08:36.202Z,88.0
2019-06-20T05:09:36.295Z,88.0
2019-06-20T05:10:36.440Z,88.0
2019-06-20T05:12:06.984Z,88.0
2019-06-20T05:22:27.622Z,89.0
2019-06-20T05:23:27.687Z,88.0
2019-06-20T05:24:27.870Z,88.0
2019-06-20T05:27:28.188Z,89.0
2019-06-20T05:28:28.321Z,88.0
2019-06-20T05:29:28.410Z,89.0
2019-06-20T05:30:23.831Z,88.0
2019-06-20T05:31:38.657Z,87.0
2019-06-20T05:34:08.948Z,88.0
2019-06-20T05:35:09.009Z,88.0
2019-06-20T05:36:39.064Z,88.0
2019-06-20T05:39:09.438Z,87.0
2019-06-20T05:40:09.569Z,87.0
2019-06-20T05:41:39.725Z,87.0
2019-06-20T05:47:31.489Z,88.0
2019-06-20T05:52:31.218Z,87.0
2019-06-20T05:53:31.303Z,86.0
2019-06-20T05:54:31.565Z,86.0
2019-06-20T05:55:31.767Z,86.0
2019-06-20T05:57:03.577Z,86.0
2019-06-20T05:57:42.072Z,86.0
2019-06-20T05:58:32.928Z,87.0
2019-06-20T05:59:32.346Z,86.0
2019-06-20T06:00:32.936Z,86.0
2019-06-20T06:02:03.223Z,86.0
2019-06-20T06:02:43.272Z,86.0
2019-06-20T06:03:33.605Z,86.0
2019-06-20T06:04:33.452Z,85.0
2019-06-20T06:05:33.496Z,84.0
2019-06-20T06:07:03.738Z,83.0
2019-06-20T06:07:43.762Z,81.0
2019-06-20T06:08:43.919Z,81.0
2019-06-20T06:09:45.536Z,81.0
2019-06-20T06:11:04.302Z,77.0
2019-06-20T06:12:04.546Z,79.0
2019-06-20T06:12:45.196Z,77.0
2019-06-20T06:13:44.811Z,76.0
2019-06-20T06:14:45.039Z,75.0
2019-06-20T06:16:25.549Z,75.0
2019-06-20T06:17:15.274Z,74.0
2019-06-20T06:18:15.414Z,73.0
2019-06-20T06:19:15.495Z,72.0
2019-06-20T06:20:15.747Z,72.0
2019-06-20T06:21:45.628Z,71.0
2019-06-20T06:22:36.030Z,71.0
2019-06-20T06:23:35.954Z,71.0
2019-06-20T06:24:36.246Z,72.0
2019-06-20T06:25:36.265Z,71.0
2019-06-20T06:27:06.304Z,69.0
2019-06-20T06:27:46.772Z,69.0
2019-06-20T06:28:37.828Z,69.0
2019-06-20T06:29:36.678Z,68.0
2019-06-20T06:30:39.082Z,67.0
2019-06-20T06:32:09.283Z,66.0
2019-06-20T06:33:09.464Z,66.0
2019-06-20T06:34:09.649Z,62.0
2019-06-20T06:35:09.816Z,62.0
2019-06-20T06:36:40.119Z,65.0
2019-06-20T06:37:20.349Z,64.0
2019-06-20T06:38:21.732Z,64.0
2019-06-20T06:42:41.058Z,60.0
2019-06-20T06:43:42.107Z,62.0
2019-06-20T06:44:41.817Z,63.0
2019-06-20T06:47:42.251Z,58.0
2019-06-20T06:48:32.340Z,59.0
2019-06-20T06:49:32.356Z,60.0
2019-06-20T06:50:32.379Z,57.0
2019-06-20T06:52:02.564Z,62.0
2019-06-20T06:52:42.708Z,58.0
2019-06-20T06:53:43.002Z,58.0
2019-06-20T06:54:43.006Z,57.0
2019-06-20T06:55:43.297Z,56.0
2019-06-20T06:57:43.731Z,58.0
2019-06-20T06:58:43.605Z,57.0
2019-06-20T06:59:43.793Z,57.0
2019-06-20T07:01:14.843Z,56.0
2019-06-20T07:02:15.236Z,56.0
2019-06-20T07:03:15.116Z,57.0
2019-06-20T07:04:15.129Z,58.0
2019-06-20T07:05:15.403Z,57.0
2019-06-20T07:06:15.410Z,56.0
2019-06-20T07:07:15.573Z,56.0
2019-06-20T07:08:15.546Z,55.0
2019-06-20T07:09:15.657Z,57.0
2019-06-20T07:10:15.676Z,58.0
2019-06-20T07:11:45.803Z,58.0
2019-06-20T07:12:25.879Z,58.0
2019-06-20T07:13:15.964Z,58.0
2019-06-20T07:14:16.113Z,57.0
2019-06-20T07:15:16.233Z,55.0
2019-06-20T07:16:59.390Z,53.0
2019-06-20T07:17:26.240Z,53.0
2019-06-20T07:18:26.281Z,53.0
2019-06-20T07:19:26.734Z,53.0
2019-06-20T07:20:26.849Z,53.0
2019-06-20T07:21:56.903Z,53.0
2019-06-20T07:27:47.399Z,54.0
2019-06-20T07:37:18.299Z,53.0
2019-06-20T07:38:18.319Z,53.0
2019-06-20T07:39:18.323Z,51.0
2019-06-20T07:40:18.371Z,51.0
2019-06-20T07:41:48.374Z,53.0
2019-06-20T07:42:28.387Z,52.0
2019-06-20T07:43:18.573Z,52.0
2019-06-20T07:44:18.575Z,52.0
2019-06-20T07:45:18.867Z,53.0
2019-06-20T07:46:48.993Z,50.0
2019-06-20T07:47:29.004Z,50.0
2019-06-20T07:48:29.167Z,51.0
2019-06-20T07:49:29.271Z,51.0
2019-06-20T07:50:29.500Z,50.0
2019-06-20T07:51:59.836Z,51.0
2019-06-20T08:01:54.710Z,50.0
2019-06-20T08:02:34.872Z,49.0
2019-06-20T08:03:35.004Z,51.0
2019-06-20T08:04:35.277Z,51.0
2019-06-20T08:06:05.263Z,48.0
2019-06-20T08:06:55.672Z,49.0
2019-06-20T08:07:35.733Z,49.0
2019-06-20T08:08:37.150Z,50.0
2019-06-20T08:09:44.634Z,49.0
2019-06-20T08:11:06.586Z,49.0
2019-06-20T08:12:06.535Z,49.0
2019-06-20T08:12:46.630Z,49.0
2019-06-20T08:13:46.814Z,51.0
2019-06-20T08:14:46.965Z,49.0
2019-06-20T08:16:16.855Z,51.0
2019-06-20T08:17:31.476Z,51.0
2019-06-20T08:18:17.037Z,52.0
2019-06-20T08:19:17.077Z,52.0
2019-06-20T08:20:17.234Z,52.0
2019-06-20T08:21:47.433Z,51.0
2019-06-20T08:22:27.447Z,52.0
2019-06-20T08:23:17.591Z,52.0
2019-06-20T08:24:17.943Z,51.0
2019-06-20T08:25:18.117Z,52.0
2019-06-20T08:26:48.137Z,50.0
2019-06-20T08:27:28.310Z,49.0
2019-06-20T08:28:28.279Z,49.0
2019-06-20T08:29:28.522Z,49.0
2019-06-20T08:30:32.519Z,49.0
2019-06-20T08:32:02.747Z,50.0
2019-06-20T08:32:42.638Z,49.0
2019-06-20T08:33:32.611Z,48.0
2019-06-20T08:34:52.822Z,48.0
2019-06-20T08:35:52.830Z,49.0
2019-06-20T08:36:32.913Z,49.0
2019-06-20T08:37:33.131Z,51.0
2019-06-20T08:38:33.297Z,50.0
2019-06-20T08:40:04.216Z,50.0
2019-06-20T08:41:04.421Z,52.0
2019-06-20T08:41:43.536Z,51.0
2019-06-20T08:42:43.686Z,51.0
2019-06-20T08:43:43.835Z,52.0
2019-06-20T08:45:14.078Z,52.0
2019-06-20T08:46:14.282Z,52.0
2019-06-20T08:47:14.604Z,52.0
2019-06-20T08:48:14.911Z,50.0
2019-06-20T08:49:15.246Z,49.0
2019-06-20T08:50:45.276Z,49.0
2019-06-20T08:51:35.499Z,49.0
2019-06-20T08:52:35.521Z,50.0
2019-06-20T08:53:35.708Z,50.0
2019-06-20T08:55:05.868Z,49.0
2019-06-20T08:55:57.665Z,48.0
2019-06-20T08:56:36.200Z,48.0
2019-06-20T08:57:36.431Z,47.0
2019-06-20T08:58:36.689Z,46.0
2019-06-20T09:01:48.061Z,46.0
2019-06-20T09:02:47.894Z,47.0
2019-06-20T09:03:48.145Z,47.0
2019-06-20T09:05:18.107Z,48.0
2019-06-20T09:06:18.247Z,48.0
2019-06-20T09:07:18.441Z,48.0
2019-06-20T09:08:18.425Z,48.0
2019-06-20T09:09:48.491Z,48.0
2019-06-20T09:10:48.507Z,48.0
2019-06-20T09:11:28.528Z,47.0
2019-06-20T09:12:18.834Z,49.0
2019-06-20T09:13:18.998Z,49.0
2019-06-20T09:14:49.156Z,48.0
2019-06-20T09:15:49.248Z,46.0
2019-06-20T09:16:29.085Z,47.0
2019-06-20T09:17:29.230Z,48.0
2019-06-20T09:18:29.351Z,48.0
2019-06-20T09:20:00.233Z,47.0
2019-06-20T09:21:00.264Z,48.0
2019-06-20T09:21:39.914Z,47.0
2019-06-20T09:22:40.035Z,47.0
2019-06-20T09:23:40.088Z,48.0
2019-06-20T09:25:10.345Z,47.0
2019-06-20T09:26:10.505Z,47.0
2019-06-20T09:27:10.559Z,48.0
2019-06-20T09:28:10.576Z,48.0
2019-06-20T09:29:41.851Z,47.0
2019-06-20T09:30:45.213Z,46.0
2019-06-20T09:31:35.368Z,45.0
2019-06-20T09:32:35.643Z,46.0
2019-06-20T09:33:25.559Z,45.0
2019-06-20T09:34:56.531Z,46.0
2019-06-20T09:35:57.462Z,45.0
2019-06-20T09:36:36.374Z,45.0
2019-06-20T09:37:36.675Z,45.0
2019-06-20T09:38:36.507Z,45.0
2019-06-20T09:40:06.668Z,45.0
2019-06-20T09:41:06.857Z,46.0
2019-06-20T09:41:46.886Z,46.0
2019-06-20T09:43:47.038Z,47.0
2019-06-20T09:47:17.163Z,46.0
2019-06-20T09:48:17.275Z,46.0
2019-06-20T09:50:27.466Z,46.0
2019-06-20T09:52:17.821Z,45.0
2019-06-20T09:55:28.749Z,43.0
2019-06-20T09:56:28.826Z,43.0
2019-06-20T09:57:28.843Z,43.0
2019-06-20T09:58:28.881Z,44.0
2019-06-20T10:00:07.508Z,44.0
2019-06-20T10:01:23.432Z,45.0
2019-06-20T10:02:23.571Z,44.0
2019-06-20T10:03:23.643Z,43.0
2019-06-20T10:04:54.456Z,43.0
2019-06-20T10:05:33.767Z,43.0
2019-06-20T10:06:33.782Z,43.0
2019-06-20T10:07:33.954Z,44.0
2019-06-20T10:08:34.100Z,43.0
2019-06-20T10:10:04.137Z,44.0
2019-06-20T10:26:05.938Z,42.0
2019-06-20T10:35:26.800Z,41.0
2019-06-20T10:36:27.251Z,42.0
2019-06-20T10:37:27.369Z,42.0
2019-06-20T10:38:27.560Z,42.0
2019-06-20T10:39:58.005Z,43.0
2019-06-20T10:40:28.050Z,44.0
2019-06-20T10:41:29.222Z,43.0
2019-06-20T10:42:28.175Z,43.0
2019-06-20T10:43:28.301Z,45.0
2019-06-20T10:44:58.431Z,44.0
2019-06-20T10:45:38.740Z,45.0
2019-06-20T10:46:38.810Z,46.0
2019-06-20T10:47:32.565Z,45.0
2019-06-20T10:48:29.070Z,42.0
2019-06-20T10:49:59.114Z,43.0
2019-06-20T10:50:39.265Z,44.0
2019-06-20T10:51:39.544Z,45.0
2019-06-20T10:52:40.970Z,44.0
2019-06-20T10:53:59.679Z,44.0
2019-06-20T10:54:59.673Z,43.0
2019-06-20T10:55:40.486Z,42.0
2019-06-20T10:56:40.407Z,42.0
2019-06-20T10:57:41.242Z,42.0
2019-06-20T10:59:10.632Z,42.0
2019-06-20T11:00:10.491Z,42.0
2019-06-20T11:01:24.474Z,42.0
2019-06-20T11:02:24.233Z,42.0
2019-06-20T11:03:24.612Z,42.0
2019-06-20T11:04:54.746Z,43.0
2019-06-20T11:05:34.808Z,43.0
2019-06-20T11:06:24.878Z,41.0
2019-06-20T11:07:24.963Z,41.0
2019-06-20T11:08:25.124Z,42.0
2019-06-20T11:09:55.267Z,40.0
2019-06-20T11:10:35.388Z,40.0
2019-06-20T11:11:35.567Z,40.0
2019-06-20T11:12:43.557Z,39.0
2019-06-20T11:14:05.716Z,40.0
2019-06-20T11:15:05.879Z,40.0
2019-06-20T11:15:46.202Z,39.0
2019-06-20T11:16:47.128Z,40.0
2019-06-20T11:17:46.439Z,37.0
2019-06-20T11:18:46.552Z,39.0
2019-06-20T11:19:47.968Z,39.0
2019-06-20T11:20:46.712Z,40.0
2019-06-20T11:21:47.681Z,39.0
2019-06-20T11:22:47.758Z,39.0
2019-06-20T11:24:17.320Z,39.0
2019-06-20T11:25:07.420Z,38.0
2019-06-20T11:25:48.312Z,40.0
2019-06-20T11:26:47.922Z,38.0
2019-06-20T11:27:47.674Z,38.0
2019-06-20T11:29:17.837Z,40.0
2019-06-20T11:30:23.701Z,41.0
2019-06-20T11:31:18.536Z,41.0
2019-06-20T11:32:18.597Z,41.0
2019-06-20T11:33:18.750Z,40.0
2019-06-20T11:34:49.368Z,42.0
2019-06-20T11:35:39.310Z,43.0
2019-06-20T11:36:40.205Z,44.0
2019-06-20T11:37:39.647Z,47.0
2019-06-20T11:39:09.478Z,45.0
2019-06-20T11:40:09.541Z,47.0
2019-06-20T11:41:09.613Z,47.0
2019-06-20T11:42:09.627Z,46.0
2019-06-20T11:43:09.629Z,47.0
2019-06-20T11:44:40.861Z,47.0
2019-06-20T11:45:19.943Z,48.0
2019-06-20T11:46:20.048Z,47.0
2019-06-20T11:47:20.651Z,48.0
2019-06-20T11:48:20.136Z,48.0
2019-06-20T11:49:50.211Z,49.0
2019-06-20T11:55:41.155Z,48.0
2019-06-20T12:00:58.553Z,55.0
2019-06-20T12:01:47.206Z,54.0
2019-06-20T12:02:46.082Z,55.0
2019-06-20T12:04:16.038Z,55.0
2019-06-20T12:05:16.289Z,56.0
2019-06-20T12:05:56.275Z,57.0
2019-06-20T12:09:26.756Z,57.0
2019-06-20T12:13:17.291Z,57.0
2019-06-20T12:20:48.754Z,59.0
2019-06-20T12:21:49.194Z,60.0
2019-06-20T12:22:50.434Z,59.0
2019-06-20T12:24:08.705Z,59.0
2019-06-20T12:25:08.467Z,58.0
2019-06-20T12:25:48.828Z,59.0
2019-06-20T12:26:48.725Z,59.0
2019-06-20T12:27:49.703Z,59.0
2019-06-20T12:29:19.130Z,60.0
2019-06-20T12:30:23.310Z,60.0
2019-06-20T12:31:15.840Z,61.0
2019-06-20T12:32:03.368Z,61.0
2019-06-20T12:33:03.563Z,59.0
2019-06-20T12:34:33.670Z,60.0
2019-06-20T12:35:33.815Z,61.0
2019-06-20T12:36:34.046Z,59.0
2019-06-20T12:37:34.080Z,60.0
2019-06-20T12:39:04.086Z,60.0
2019-06-20T12:40:04.099Z,61.0
2019-06-20T12:40:44.199Z,60.0
2019-06-20T12:41:45.477Z,59.0
2019-06-20T12:42:44.851Z,61.0
2019-06-20T12:44:14.599Z,62.0
2019-06-20T12:45:14.729Z,62.0
2019-06-20T12:45:55.050Z,62.0
2019-06-20T12:46:54.978Z,63.0
2019-06-20T12:47:54.993Z,62.0
2019-06-20T12:49:25.191Z,63.0
2019-06-20T12:50:25.309Z,63.0
2019-06-20T12:51:25.373Z,62.0
2019-06-20T12:52:25.490Z,62.0
2019-06-20T12:53:55.519Z,62.0
2019-06-20T12:54:55.515Z,63.0
2019-06-20T12:55:35.504Z,63.0
2019-06-20T12:56:35.556Z,63.0
2019-06-20T12:57:35.776Z,64.0
2019-06-20T12:59:06.014Z,65.0
2019-06-20T13:00:06.122Z,65.0
2019-06-20T13:00:46.544Z,64.0
2019-06-20T13:01:48.187Z,64.0
2019-06-20T13:02:47.421Z,65.0
2019-06-20T13:04:06.549Z,65.0
2019-06-20T13:04:56.635Z,65.0
2019-06-20T13:05:36.754Z,65.0
2019-06-20T13:06:37.667Z,65.0
2019-06-20T13:07:38.557Z,65.0
2019-06-20T13:09:07.070Z,65.0
2019-06-20T13:10:07.161Z,65.0
2019-06-20T13:10:48.283Z,65.0
2019-06-20T13:11:37.596Z,65.0
2019-06-20T13:12:37.313Z,65.0
2019-06-20T13:14:07.635Z,66.0
2019-06-20T13:14:47.619Z,65.0
2019-06-20T13:15:48.944Z,66.0
2019-06-20T13:16:48.206Z,66.0
2019-06-20T13:17:49.033Z,66.0
2019-06-20T13:19:18.393Z,67.0
2019-06-20T13:19:58.401Z,66.0
2019-06-20T13:20:58.407Z,66.0
2019-06-20T13:21:58.483Z,65.0
2019-06-20T13:22:58.555Z,66.0
2019-06-20T13:24:28.687Z,66.0
2019-06-20T13:25:18.808Z,65.0
2019-06-20T13:25:58.882Z,65.0
2019-06-20T13:26:59.127Z,65.0
2019-06-20T13:27:59.168Z,65.0
2019-06-20T13:29:29.831Z,65.0
2019-06-20T13:34:46.928Z,65.0
2019-06-20T13:35:55.669Z,65.0
2019-06-20T13:36:55.837Z,64.0
2019-06-20T13:37:56.257Z,64.0
2019-06-20T13:39:26.082Z,65.0
2019-06-20T13:40:16.335Z,65.0
2019-06-20T13:40:56.304Z,64.0
2019-06-20T13:41:56.355Z,61.0
2019-06-20T13:42:56.482Z,57.0
2019-06-20T13:44:26.512Z,55.0
2019-06-20T13:45:26.560Z,52.0
2019-06-20T13:46:26.570Z,50.0
2019-06-20T13:47:26.717Z,49.0
2019-06-20T13:48:57.106Z,47.0
2019-06-20T13:50:47.410Z,45.0
2019-06-20T13:51:47.667Z,45.0
2019-06-20T13:52:49.126Z,43.0
2019-06-20T13:54:17.441Z,43.0
2019-06-20T13:55:17.458Z,42.0
2019-06-20T13:55:57.674Z,43.0
2019-06-20T13:56:47.689Z,42.0
2019-06-20T13:57:49.159Z,41.0
2019-06-20T13:59:18.113Z,41.0
2019-06-20T13:59:58.273Z,40.0
2019-06-20T14:00:58.267Z,41.0
2019-06-20T14:02:06.395Z,42.0
2019-06-20T14:02:58.588Z,42.0
2019-06-20T14:04:29.194Z,41.0
2019-06-20T14:14:00.203Z,40.0
2019-06-20T14:19:50.824Z,39.0
2019-06-20T14:20:51.051Z,38.0
2019-06-20T14:21:51.204Z,38.0
2019-06-20T14:22:52.201Z,39.0
2019-06-20T14:24:21.400Z,38.0
2019-06-20T14:29:43.317Z,38.0
2019-06-20T14:30:44.589Z,40.0
2019-06-20T14:31:44.264Z,40.0
2019-06-20T14:32:43.552Z,39.0
2019-06-20T14:34:13.634Z,39.0
2019-06-20T14:34:54.316Z,38.0
2019-06-20T14:35:45.567Z,38.0
2019-06-20T14:36:46.161Z,37.0
2019-06-20T14:37:45.532Z,38.0
2019-06-20T14:39:14.307Z,38.0
2019-06-20T14:39:54.976Z,39.0
2019-06-20T14:40:54.638Z,39.0
2019-06-20T14:41:55.227Z,39.0
2019-06-20T14:42:54.938Z,39.0
2019-06-20T14:44:25.098Z,39.0
2019-06-20T14:45:05.277Z,39.0
2019-06-20T14:45:56.434Z,39.0
2019-06-20T14:46:55.411Z,39.0
2019-06-20T14:47:55.532Z,39.0
2019-06-20T14:49:25.692Z,39.0
2019-06-20T14:50:05.821Z,40.0
2019-06-20T14:51:05.885Z,40.0
2019-06-20T14:51:57.337Z,40.0
2019-06-20T14:52:56.230Z,41.0
2019-06-20T14:54:26.502Z,41.0
2019-06-20T14:55:06.449Z,41.0
2019-06-20T14:55:56.461Z,40.0
2019-06-20T14:56:58.230Z,42.0
2019-06-20T14:57:56.571Z,42.0
2019-06-20T14:59:26.550Z,42.0
2019-06-20T15:00:06.569Z,41.0
2019-06-20T15:09:52.887Z,42.0
2019-06-20T15:10:51.916Z,42.0
2019-06-20T15:11:53.145Z,42.0
2019-06-20T15:14:53.414Z,41.0
2019-06-20T15:15:53.391Z,41.0
2019-06-20T15:16:53.619Z,41.0
2019-06-20T15:17:55.273Z,41.0
2019-06-20T15:19:22.936Z,40.0
2019-06-20T15:20:02.862Z,40.0
2019-06-20T15:21:03.078Z,40.0
2019-06-20T15:22:03.200Z,40.0
2019-06-20T15:23:03.613Z,40.0
2019-06-20T15:24:33.825Z,41.0
2019-06-20T15:25:33.830Z,41.0
2019-06-20T15:26:34.004Z,40.0
2019-06-20T15:27:34.076Z,41.0
2019-06-20T15:29:06.204Z,41.0
2019-06-20T15:29:46.087Z,40.0
2019-06-20T15:30:59.779Z,40.0
2019-06-20T15:32:00.239Z,41.0
2019-06-20T15:33:09.237Z,41.0
2019-06-20T15:34:30.660Z,40.0
2019-06-20T15:35:10.666Z,40.0
2019-06-20T15:36:10.824Z,40.0
2019-06-20T15:37:11.128Z,41.0
2019-06-20T15:38:11.105Z,40.0
2019-06-20T15:39:41.210Z,41.0
2019-06-20T15:40:31.226Z,41.0
2019-06-20T15:41:12.485Z,43.0
2019-06-20T15:42:11.430Z,43.0
2019-06-20T15:43:41.449Z,42.0
2019-06-20T15:44:41.516Z,42.0
2019-06-20T15:45:41.661Z,43.0
2019-06-20T15:46:41.868Z,43.0
2019-06-20T15:47:41.969Z,44.0
2019-06-20T15:49:15.906Z,45.0
2019-06-20T15:50:52.601Z,47.0
2019-06-20T15:51:52.793Z,47.0
2019-06-20T15:52:52.643Z,48.0
2019-06-20T15:54:24.549Z,49.0
2019-06-20T15:55:02.910Z,49.0
2019-06-20T15:55:53.122Z,49.0
2019-06-20T15:56:53.337Z,49.0
2019-06-20T15:57:54.269Z,50.0
2019-06-20T15:59:23.921Z,50.0
2019-06-20T16:00:04.057Z,51.0
2019-06-20T16:01:06.313Z,51.0
2019-06-20T16:01:56.489Z,52.0
2019-06-20T16:03:08.711Z,53.0
2019-06-20T16:04:26.844Z,52.0
2019-06-20T16:05:06.851Z,52.0
2019-06-20T16:05:56.874Z,52.0
2019-06-20T16:06:56.951Z,52.0
2019-06-20T16:07:57.013Z,52.0
2019-06-20T16:09:27.072Z,52.0
2019-06-20T16:10:07.182Z,53.0
2019-06-20T16:11:07.248Z,53.0
2019-06-20T16:12:07.330Z,53.0
2019-06-20T16:13:07.421Z,52.0
2019-06-20T16:14:37.669Z,52.0
2019-06-20T16:15:37.734Z,53.0
2019-06-20T16:16:38.063Z,53.0
2019-06-20T16:17:38.212Z,54.0
2019-06-20T16:19:08.170Z,54.0
2019-06-20T16:29:59.333Z,57.0
2019-06-20T16:31:08.220Z,57.0
2019-06-20T16:31:59.271Z,57.0
2019-06-20T16:32:59.320Z,58.0
2019-06-20T16:34:29.587Z,59.0
2019-06-20T16:35:09.385Z,59.0
2019-06-20T16:36:12.808Z,59.0
2019-06-20T16:37:10.517Z,60.0
2019-06-20T16:38:40.160Z,60.0
2019-06-20T16:39:40.141Z,61.0
2019-06-20T16:40:30.127Z,61.0
2019-06-20T16:41:10.259Z,62.0
2019-06-20T16:42:10.246Z,62.0
2019-06-20T16:43:40.396Z,63.0
2019-06-20T16:44:40.297Z,63.0
2019-06-20T16:45:40.384Z,62.0
2019-06-20T16:46:40.332Z,62.0
2019-06-20T16:47:40.391Z,60.0
2019-06-20T16:49:10.432Z,59.0
2019-06-20T16:55:11.700Z,56.0
2019-06-20T16:56:01.800Z,57.0
2019-06-20T16:57:01.801Z,56.0
2019-06-20T16:58:01.794Z,55.0
2019-06-20T16:59:32.809Z,53.0
2019-06-20T17:00:36.144Z,51.0
2019-06-20T17:01:36.376Z,51.0
2019-06-20T17:02:36.351Z,50.0
2019-06-20T17:04:06.543Z,50.0
2019-06-20T17:04:46.611Z,49.0
2019-06-20T17:05:46.531Z,48.0
2019-06-20T17:06:46.629Z,48.0
2019-06-20T17:07:46.562Z,47.0
2019-06-20T17:09:17.130Z,47.0
2019-06-20T17:09:57.102Z,46.0
2019-06-20T17:11:07.088Z,46.0
2019-06-20T17:12:10.308Z,47.0
2019-06-20T17:13:07.441Z,46.0
2019-06-20T17:14:37.780Z,46.0
2019-06-20T17:15:37.782Z,47.0
2019-06-20T17:16:38.153Z,46.0
2019-06-20T17:17:38.155Z,47.0
2019-06-20T17:19:08.273Z,47.0
2019-06-20T17:19:48.365Z,46.0
2019-06-20T17:20:38.623Z,47.0
2019-06-20T17:21:38.607Z,46.0
2019-06-20T17:22:38.895Z,47.0
2019-06-20T17:24:09.061Z,46.0